Flight Track Log - Related Links

Times and Time Zones

All times are in EDT time to prevent confusion due to time zone crossing. See the AWE1940 flight status page for this flight to view local times or setup timezone preferences in your user account.

Time Position Orientation Groundspeed Altitude Reporting Facility
EDT Latitude Longitude Course Direction KTS MPH feet Rate Location/Type
Sun 10:31:13 PM 35.1908 -80.9356 72° East 174 200 1,700  Level Atlanta Center
Sun 10:32:01 PM 35.1444 -80.9222 167° South 212 244 3,000 1,872 Climbing Atlanta Center
Sun 10:33:02 PM 35.0972 -80.8606 133° Southeast 277 319 5,100 2,225 Climbing Atlanta Center
Sun 10:34:00 PM 35.1788 -80.5808 29° Northeast  Level FlightAware Approximate
Sun 10:34:32 PM 35.1019 -80.7333 87° East 289 333 8,600  Level Atlanta Center
Sun 10:35:00 PM 35.2669 -80.5189 30° Northeast  Level FlightAware Approximate
Sun 10:35:32 PM 35.1267 -80.6411 72° East 289 333 11,200  Level Atlanta Center
Sun 10:36:00 PM 35.3376 -80.4506 72° East  Level FlightAware Approximate
Sun 10:36:32 PM 35.1961 -80.5897 31° Northeast 267 307 13,100  Level Atlanta Center
Sun 10:37:32 PM 35.2717 -80.5308 32° Northeast 298 343 15,000 2,100 Climbing Atlanta Center
Sun 10:38:32 PM 35.3503 -80.4306 46° Northeast 344 396 17,300 2,060 Climbing Atlanta Center
Sun 10:40:18 PM 35.4142 -80.1972 71° East 414 476 20,700 1,725 Climbing Washington Center
Sun 10:41:19 PM 35.4483 -80.0692 72° East 424 488 22,100 1,600 Climbing Washington Center
Sun 10:42:18 PM 35.4917 -79.9136 71° East 435 501 23,900 1,714 Climbing Washington Center
Sun 10:43:18 PM 35.5283 -79.7622 73° East 447 514 25,500 1,587 Climbing Washington Center
Sun 10:44:19 PM 35.5692 -79.6061 72° East 459 528 27,100 1,550 Climbing Washington Center
Sun 10:45:18 PM 35.6097 -79.4525 72° East 474 545 28,600 942 Climbing Washington Center
Sun 10:46:20 PM 35.6644 -79.3067 65° Northeast 468 539 29,000 197 Climbing Washington Center
Sun 10:47:20 PM 35.7208 -79.1686 63° Northeast 461 531 29,000  Level Washington Center
Sun 10:48:18 PM 35.7792 -79.0253 63° Northeast 455 524 29,000  Level Washington Center
Sun 10:49:20 PM 35.8353 -78.8844 64° Northeast 455 524 29,000  Level Washington Center
Sun 10:50:18 PM 35.8956 -78.7458 62° Northeast 455 524 29,000  Level Washington Center
Sun 10:51:19 PM 35.9614 -78.6125 59° Northeast 455 524 29,000  Level Washington Center
Sun 10:52:19 PM 36.0253 -78.4761 60° Northeast 455 524 29,000  Level Washington Center
Sun 10:53:19 PM 36.0758 -78.3675 60° Northeast 455 524 29,000  Level Washington Center
Sun 10:54:19 PM 36.1481 -78.2233 58° Northeast 455 524 29,000  Level Washington Center
Sun 10:55:18 PM 36.2136 -78.0842 60° Northeast 455 524 29,000  Level Washington Center
Sun 10:56:19 PM 36.2789 -77.9469 59° Northeast 455 524 29,000  Level Washington Center
Sun 10:57:20 PM 36.3442 -77.8097 59° Northeast 455 524 29,000  Level Washington Center
Sun 10:58:18 PM 36.4072 -77.6722 60° Northeast 455 524 29,000  Level Washington Center
Sun 10:59:19 PM 36.4700 -77.5369 60° Northeast 450 518 29,000  Level Washington Center
Sun 11:00:18 PM 36.5347 -77.4014 59° Northeast 450 518 29,000  Level Washington Center
Sun 11:01:18 PM 36.5992 -77.2606 60° Northeast 457 526 29,000  Level Washington Center
Sun 11:02:18 PM 36.6617 -77.1275 60° Northeast 457 526 29,000  Level Washington Center
Sun 11:03:19 PM 36.7300 -76.9967 57° Northeast 452 520 29,000  Level Washington Center
Sun 11:04:19 PM 36.8269 -76.9100 36° Northeast 427 491 29,000  Level Washington Center
Sun 11:05:18 PM 36.9217 -76.8233 36° Northeast 422 486 29,000  Level Washington Center
Sun 11:06:19 PM 37.0311 -76.7289 35° Northeast 427 491 29,000  Level Washington Center
Sun 11:07:18 PM 37.1258 -76.6417 36° Northeast 427 491 29,000  Level Washington Center
Sun 11:08:18 PM 37.2225 -76.5517 37° Northeast 427 491 29,000  Level Washington Center
Sun 11:09:20 PM 37.3169 -76.4614 37° Northeast 432 497 29,000  Level Washington Center
Sun 11:10:19 PM 37.4136 -76.3764 35° Northeast 432 497 29,000  Level Washington Center
Sun 11:11:20 PM 37.5100 -76.2883 36° Northeast 427 491 29,000  Level Washington Center
Sun 11:12:18 PM 37.6044 -76.2025 36° Northeast 427 491 29,000  Level Washington Center
Sun 11:13:20 PM 37.6861 -76.1350 33° Northeast 433 498 29,000  Level Washington Center
Sun 11:14:19 PM 37.7992 -76.0228 38° Northeast 433 498 29,000  Level Washington Center
Sun 11:15:20 PM 37.8869 -75.9392 37° Northeast 433 498 29,000  Level Washington Center
Sun 11:16:20 PM 37.9831 -75.8500 36° Northeast 433 498 29,000  Level Washington Center
Sun 11:17:19 PM 38.0792 -75.7631 35° Northeast 428 493 29,000  Level Washington Center
Sun 11:18:18 PM 38.1731 -75.6708 38° Northeast 428 493 29,000  Level Washington Center
Sun 11:19:18 PM 38.2650 -75.5839 37° Northeast 423 487 29,000  Level Washington Center
Sun 11:20:19 PM 38.3650 -75.5017 33° Northeast 423 487 29,000 -393 Level Washington Center
Sun 11:21:20 PM 38.4711 -75.4592 17° North 405 466 28,200 -843 Descending Washington Center
Sun 11:22:20 PM 38.5817 -75.4164 17° North 405 466 27,300 -610 Descending Washington Center
Sun 11:23:18 PM 38.6919 -75.3683 19° North 410 472 27,000 -153 Descending Washington Center
Sun 11:24:18 PM 38.8025 -75.3225 18° North 410 472 27,000  Level Washington Center
Sun 11:25:18 PM 38.9128 -75.2742 19° North 410 472 27,000  Level Washington Center
Sun 11:26:19 PM 39.0211 -75.2283 18° North 415 478 27,000  Level Washington Center
Sun 11:27:18 PM 39.1336 -75.1850 17° North 415 478 27,000  Level Washington Center
Sun 11:28:19 PM 39.2439 -75.1386 18° North 415 478 27,000  Level Washington Center
Sun 11:29:19 PM 39.3478 -75.0683 28° Northeast 415 478 27,000  Level Washington Center
Sun 11:30:53 PM 39.5028 -74.9169 37° Northeast 427 491 27,000  Level New York Center
Sun 11:31:53 PM 39.5958 -74.8228 38° Northeast 432 497 27,000  Level New York Center
Sun 11:32:53 PM 39.6928 -74.7286 37° Northeast 432 497 27,000  Level New York Center
Sun 11:33:53 PM 39.8086 -74.6919 14° North 416 479 27,000  Level New York Center
Sun 11:34:53 PM 39.9181 -74.6603 13° North 410 472 27,000  Level New York Center
Sun 11:35:53 PM 40.0317 -74.6286 12° North 404 465 27,000  Level New York Center
Sun 11:37:48 PM 40.2464 -74.5633 13° North 391 450 27,000  Level Boston Center
Sun 11:38:48 PM 40.3617 -74.5261 14° North 398 458 27,000  Level Boston Center
Sun 11:39:48 PM 40.4728 -74.4944 12° North 405 466 27,000  Level Boston Center
Sun 11:40:48 PM 40.5881 -74.4597 13° North 413 475 27,000 -50 Level Boston Center
Sun 11:41:48 PM 40.7011 -74.4247 13° North 413 475 26,900  Descending Boston Center
Sun 11:42:48 PM 40.8142 -74.3925 12° North 413 475 27,000 50 Climbing Boston Center
Sun 11:43:48 PM 40.9314 -74.3633 11° North 418 481 27,000  Level Boston Center
Sun 11:44:48 PM 41.0528 -74.3283 12° North 412 474 27,000  Level Boston Center
Sun 11:45:48 PM 41.1639 -74.2931 13° North 407 468 27,000  Level Boston Center
Sun 11:46:48 PM 41.2708 -74.2600 13° North 407 468 27,000  Level Boston Center
Sun 11:47:48 PM 41.3839 -74.2247 13° North 407 468 27,000 -350 Level Boston Center
Sun 11:48:48 PM 41.4928 -74.1889 14° North 407 468 26,300 -1,045 Descending Boston Center
Sun 11:50:00 PM 41.6017 -74.1614 11° North 402 463 24,700 -2,045 Descending Boston Center
Sun 11:51:00 PM 41.7253 -74.1200 14° North 390 449 21,800 -2,450 Descending Boston Center
Sun 11:52:00 PM 41.8089 -74.1028 North 371 427 19,800 -2,150 Descending Boston Center
Sun 11:53:00 PM 41.9011 -74.0692 15° North 332 382 17,500 -2,372 Descending Boston Center
Sun 11:53:26 PM 41.9492 -74.0564 11° North 332 382 16,400 -2,400 Descending Boston Center
Sun 11:54:00 PM 41.9994 -74.0381 15° North 327 376 15,100 -2,200 Descending Boston Center
Sun 11:54:26 PM 42.0392 -74.0278 11° North 319 367 14,200 -1,900 Descending Boston Center
Sun 11:55:00 PM 42.0747 -74.0147 15° North 313 360 13,200 -2,066 Descending Boston Center
Sun 11:55:27 PM 42.1208 -74.0019 12° North 309 356 12,100 -2,400 Descending Boston Center
Sun 11:56:00 PM 42.1689 -73.9836 16° North 313 360 10,800 -1,600 Descending Boston Center
Sun 11:56:27 PM 42.2006 -73.9675 21° North 304 350 10,500 -600 Descending Boston Center
Sun 11:57:00 PM 42.2319 -73.9514 21° North 292 336 10,200 -984 Descending Boston Center
Sun 11:57:28 PM 42.2697 -73.9328 20° North 257 296 9,500 -1,600 Descending Boston Center
Sun 11:58:00 PM 42.3075 -73.9139 20° North 256 295 8,600 -1,869 Descending Boston Center
Sun 11:58:29 PM 42.3367 -73.9033 15° North 244 281 7,600 -1,900 Descending Boston Center
Sun 11:59:00 PM 42.3642 -73.8872 23° Northeast 247 284 6,700 -2,000 Descending Boston Center
Sun 11:59:29 PM 42.3997 -73.8711 19° North 242 278 5,600 -2,200 Descending Boston Center
Mon 12:00:00 AM 42.4353 -73.8522 21° North 241 277 4,500 -2,066 Descending Boston Center
Mon 12:00:30 AM 42.4667 -73.8417 14° North 236 272 3,500 -1,500 Descending Boston Center
Mon 12:01:00 AM 42.4900 -73.8281 23° Northeast 241 277 3,000 -500 Descending Boston Center
Mon 12:01:30 AM 42.5214 -73.8119 21° North 216 249 3,000  Level Boston Center
Mon 12:02:12 AM 42.5486 -73.7983 20° North 219 252 3,000  Level Boston Center
Mon 12:02:31 AM 42.5736 -73.8019 354° North 182 209 3,000  Level Boston Center
Mon 12:03:12 AM 42.6047 -73.7997 North 179 206 3,000 -393 Level Boston Center
Mon 12:03:32 AM 42.6214 -73.8000 359° North 163 188 2,600 -1,200 Descending Boston Center

Login

Don't have an account? Register now (free) for customized features, flight alerts, and more!